createdAt,value
2023-01-23T00:01:01.444Z,2.10
2023-01-23T00:03:29.653Z,2.00
2023-01-23T00:06:01.966Z,2.10
2023-01-23T00:08:29.923Z,2.10
2023-01-23T00:10:57.893Z,2.20
2023-01-23T00:13:27.069Z,2.30
2023-01-23T00:15:54.737Z,2.20
2023-01-23T00:18:21.651Z,2.20
2023-01-23T00:20:48.745Z,2.30
2023-01-23T00:23:16.929Z,2.40
2023-01-23T00:25:46.794Z,2.40
2023-01-23T00:28:19.708Z,2.30
2023-01-23T00:30:49.723Z,2.30
2023-01-23T00:33:17.048Z,2.30
2023-01-23T00:35:44.516Z,2.30
2023-01-23T00:38:11.581Z,2.30
2023-01-23T00:40:41.608Z,2.30
2023-01-23T00:43:09.212Z,2.30
2023-01-23T00:45:51.722Z,2.50
2023-01-23T00:48:25.875Z,2.40
2023-01-23T00:50:54.315Z,2.40
2023-01-23T00:53:22.123Z,2.40
2023-01-23T00:55:49.599Z,2.40
2023-01-23T00:58:19.735Z,2.40
2023-01-23T01:00:46.789Z,2.20
2023-01-23T01:03:17.101Z,2.40
2023-01-23T01:05:44.862Z,2.30
2023-01-23T01:08:12.330Z,2.30
2023-01-23T01:10:48.243Z,2.30
2023-01-23T01:13:22.652Z,2.30
2023-01-23T01:16:03.807Z,2.30
2023-01-23T01:18:34.836Z,2.40
2023-01-23T01:21:13.988Z,2.40
2023-01-23T01:23:50.221Z,2.50
2023-01-23T01:26:29.698Z,2.50
2023-01-23T01:28:57.293Z,2.40
2023-01-23T01:31:32.311Z,2.40
2023-01-23T01:33:59.278Z,2.40
2023-01-23T01:36:27.697Z,2.30
2023-01-23T01:38:54.771Z,2.30
2023-01-23T01:41:23.412Z,2.30
2023-01-23T01:43:53.677Z,2.40
2023-01-23T01:46:26.829Z,2.40
2023-01-23T01:49:30.622Z,2.40
2023-01-23T01:52:02.992Z,2.40
2023-01-23T01:54:42.155Z,2.50
2023-01-23T01:57:25.391Z,2.60
2023-01-23T02:00:16.096Z,2.60
2023-01-23T02:02:48.968Z,2.60
2023-01-23T02:05:43.677Z,2.60
2023-01-23T02:08:18.099Z,2.50
2023-01-23T02:10:46.705Z,2.50
2023-01-23T02:13:26.270Z,2.50
2023-01-23T02:15:53.579Z,2.50
2023-01-23T02:18:22.705Z,2.50
2023-01-23T02:20:55.808Z,2.50
2023-01-23T02:23:26.144Z,2.60
2023-01-23T02:26:05.747Z,2.70
2023-01-23T02:28:47.837Z,2.60
2023-01-23T02:31:16.750Z,2.60
2023-01-23T02:33:54.120Z,2.40
2023-01-23T02:36:24.344Z,2.40
2023-01-23T02:39:08.560Z,2.30
2023-01-23T02:41:40.267Z,2.30
2023-01-23T02:44:29.799Z,2.40
2023-01-23T02:47:08.900Z,2.40
2023-01-23T02:49:36.382Z,2.50
2023-01-23T02:52:03.843Z,2.50
2023-01-23T02:54:33.040Z,2.30
2023-01-23T02:57:00.556Z,2.30
2023-01-23T02:59:46.463Z,2.30
2023-01-23T03:02:15.210Z,2.30
2023-01-23T03:04:45.123Z,2.20
2023-01-23T03:07:13.907Z,2.30
2023-01-23T03:09:42.150Z,2.30
2023-01-23T03:12:09.829Z,2.20
2023-01-23T03:14:39.566Z,2.20
2023-01-23T03:17:06.679Z,2.20
2023-01-23T03:19:38.108Z,2.20
2023-01-23T03:22:05.085Z,2.30
2023-01-23T03:24:36.665Z,2.40
2023-01-23T03:27:06.724Z,2.40
2023-01-23T03:29:55.371Z,2.60
2023-01-23T03:32:24.074Z,2.40
2023-01-23T03:34:51.413Z,2.50
2023-01-23T03:37:20.561Z,2.50
2023-01-23T03:40:08.328Z,2.40
2023-01-23T03:42:37.860Z,2.40
2023-01-23T03:45:08.297Z,2.40
2023-01-23T03:47:39.706Z,2.30
2023-01-23T03:50:10.242Z,2.40
2023-01-23T03:52:41.082Z,2.60
2023-01-23T03:55:09.909Z,2.70
2023-01-23T03:57:38.903Z,2.60
2023-01-23T04:00:09.222Z,2.50
2023-01-23T04:02:40.331Z,2.60
2023-01-23T04:05:09.264Z,2.60
2023-01-23T04:07:39.079Z,2.40
2023-01-23T04:10:06.257Z,2.40
2023-01-23T04:12:33.587Z,2.40
2023-01-23T04:15:00.691Z,2.40
2023-01-23T04:17:30.205Z,2.40
2023-01-23T04:19:57.098Z,2.40
2023-01-23T04:22:24.143Z,2.40
2023-01-23T04:24:53.288Z,2.30
2023-01-23T04:27:20.993Z,2.50
2023-01-23T04:29:53.333Z,2.70
2023-01-23T04:32:21.101Z,2.60
2023-01-23T04:34:54.460Z,2.60
2023-01-23T04:37:21.869Z,2.50
2023-01-23T04:39:50.435Z,2.50
2023-01-23T04:42:17.563Z,2.50
2023-01-23T04:44:47.504Z,2.60
2023-01-23T04:47:14.940Z,2.40
2023-01-23T04:49:45.767Z,2.50
2023-01-23T04:52:13.340Z,2.40
2023-01-23T04:54:41.171Z,2.40
2023-01-23T04:57:09.205Z,2.30
2023-01-23T05:02:19.393Z,2.10
2023-01-23T05:10:14.897Z,2.30
2023-01-23T05:12:43.225Z,2.40
2023-01-23T05:15:11.518Z,2.40
2023-01-23T05:17:39.210Z,2.40
2023-01-23T05:20:11.469Z,2.40
2023-01-23T05:22:40.102Z,2.30
2023-01-23T05:25:09.028Z,2.40
2023-01-23T05:27:42.757Z,2.40
2023-01-23T05:30:15.694Z,2.40
2023-01-23T05:32:46.079Z,2.30
2023-01-23T05:35:17.559Z,2.40
2023-01-23T05:37:48.868Z,2.40
2023-01-23T05:40:18.847Z,2.30
2023-01-23T05:42:48.620Z,2.20
2023-01-23T05:45:16.559Z,2.20
2023-01-23T05:47:44.275Z,2.30
2023-01-23T05:50:19.208Z,2.20
2023-01-23T05:52:53.273Z,2.30
2023-01-23T05:55:36.422Z,2.20
2023-01-23T05:58:05.467Z,2.40
2023-01-23T06:00:33.516Z,2.50
2023-01-23T06:03:04.905Z,2.50
2023-01-23T06:05:41.720Z,2.50
2023-01-23T06:08:11.806Z,2.50
2023-01-23T06:10:38.905Z,2.80
2023-01-23T06:13:07.537Z,2.80
2023-01-23T06:18:24.623Z,2.40
2023-01-23T06:20:58.936Z,2.20
2023-01-23T06:42:14.201Z,2.50
2023-01-23T06:44:45.435Z,2.50
2023-01-23T06:47:14.336Z,2.60
2023-01-23T06:49:49.450Z,2.70
2023-01-23T06:55:08.434Z,2.50
2023-01-23T07:00:24.563Z,2.40
2023-01-23T07:16:40.160Z,2.20
2023-01-23T07:19:07.542Z,2.40
2023-01-23T07:21:35.226Z,2.30
2023-01-23T07:24:11.499Z,2.30
2023-01-23T07:26:41.264Z,2.30
2023-01-23T07:29:11.248Z,2.30
2023-01-23T07:31:40.690Z,2.10
2023-01-23T07:34:12.556Z,2.30
2023-01-23T07:36:44.852Z,2.30
2023-01-23T07:41:50.671Z,2.50
2023-01-23T07:44:26.474Z,2.40
2023-01-23T08:03:08.636Z,2.70
2023-01-23T08:05:43.743Z,2.60
2023-01-23T08:46:06.524Z,2.90
2023-01-23T09:07:29.795Z,2.80
2023-01-23T09:10:01.839Z,2.80
2023-01-23T09:12:40.927Z,2.80
2023-01-23T09:15:13.383Z,2.80
2023-01-23T09:20:28.245Z,2.80
2023-01-23T09:23:00.949Z,3.00
2023-01-23T09:33:37.449Z,3.10
2023-01-23T09:41:30.699Z,3.10
2023-01-23T09:54:44.161Z,3.10
2023-01-23T10:00:16.136Z,3.20
2023-01-23T10:05:21.820Z,3.10
2023-01-23T10:52:30.320Z,3.60
2023-01-23T10:58:24.232Z,3.40
2023-01-23T11:09:28.970Z,3.70
2023-01-23T11:14:34.955Z,3.70
2023-01-23T11:17:14.057Z,3.70
2023-01-23T11:22:43.467Z,3.60
2023-01-23T11:30:39.142Z,3.40
2023-01-23T11:58:49.053Z,2.90
2023-01-23T12:58:40.803Z,3.00
2023-01-23T13:44:07.890Z,3.00
2023-01-23T14:35:36.428Z,2.80
2023-01-23T15:28:56.499Z,2.50
2023-01-23T16:06:50.901Z,2.60
2023-01-23T16:11:56.674Z,2.60
2023-01-23T16:14:24.904Z,2.70
2023-01-23T16:16:58.215Z,2.70
2023-01-23T16:19:32.125Z,2.60
2023-01-23T16:22:07.047Z,2.60
2023-01-23T16:27:43.067Z,2.60
2023-01-23T16:30:29.507Z,2.60
2023-01-23T16:33:02.104Z,2.60
2023-01-23T16:35:29.356Z,2.60
2023-01-23T16:37:56.919Z,2.50
2023-01-23T16:40:28.054Z,2.70
2023-01-23T16:42:59.079Z,2.60
2023-01-23T16:45:38.712Z,2.60
2023-01-23T16:48:26.393Z,2.60
2023-01-23T16:51:04.607Z,2.50
2023-01-23T16:53:52.847Z,2.50
2023-01-23T16:56:28.561Z,2.60
2023-01-23T16:58:57.304Z,2.50
2023-01-23T17:01:24.956Z,2.50
2023-01-23T17:04:06.099Z,2.50
2023-01-23T17:06:34.871Z,2.50
2023-01-23T17:09:09.951Z,2.50
2023-01-23T17:11:46.196Z,2.40
2023-01-23T17:14:23.889Z,2.40
2023-01-23T17:17:32.175Z,2.60
2023-01-23T17:20:22.387Z,2.50
2023-01-23T17:23:13.565Z,2.40
2023-01-23T17:26:00.396Z,2.50
2023-01-23T17:28:29.869Z,2.50
2023-01-23T17:31:07.979Z,2.50
2023-01-23T17:33:40.967Z,2.60
2023-01-23T17:39:09.397Z,2.50
2023-01-23T17:41:46.664Z,2.70
2023-01-23T17:49:59.726Z,2.50
2023-01-23T17:52:33.281Z,2.30
2023-01-23T17:55:09.618Z,2.50
2023-01-23T17:57:41.025Z,2.40
2023-01-23T18:00:21.778Z,2.40
2023-01-23T18:03:25.718Z,2.30
2023-01-23T18:06:02.294Z,2.30
2023-01-23T18:11:31.023Z,2.40
2023-01-23T18:15:05.490Z,2.40
2023-01-23T18:18:04.262Z,2.40
2023-01-23T18:20:43.765Z,2.50
2023-01-23T18:29:37.710Z,2.30
2023-01-23T18:42:21.922Z,2.30
2023-01-23T18:47:31.554Z,2.30
2023-01-23T18:50:02.308Z,2.30
2023-01-23T18:52:53.634Z,2.30
2023-01-23T18:58:18.663Z,2.30
2023-01-23T19:00:58.941Z,2.50
2023-01-23T19:03:40.456Z,2.60
2023-01-23T19:06:18.608Z,2.60
2023-01-23T19:08:48.191Z,2.40
2023-01-23T19:11:31.577Z,2.40
2023-01-23T19:14:35.315Z,2.50
2023-01-23T19:20:20.250Z,2.40
2023-01-23T19:23:12.820Z,2.40
2023-01-23T19:26:00.180Z,2.30
2023-01-23T19:28:27.501Z,2.30
2023-01-23T19:30:55.082Z,2.40
2023-01-23T19:33:22.510Z,2.40
2023-01-23T19:35:51.466Z,2.40
2023-01-23T19:38:23.467Z,2.40
2023-01-23T19:40:50.842Z,2.30
2023-01-23T19:43:19.515Z,2.40
2023-01-23T19:45:48.228Z,2.40
2023-01-23T19:48:17.805Z,2.40
2023-01-23T19:50:47.232Z,2.50
2023-01-23T19:53:19.346Z,2.40
2023-01-23T19:55:46.504Z,2.30
2023-01-23T19:58:13.695Z,2.50
2023-01-23T20:00:41.101Z,2.40
2023-01-23T20:03:11.456Z,2.40
2023-01-23T20:05:39.323Z,2.50
2023-01-23T20:08:15.742Z,2.30
2023-01-23T20:10:54.683Z,2.40
2023-01-23T20:13:39.132Z,2.40
2023-01-23T20:16:32.781Z,2.40
2023-01-23T20:18:59.864Z,2.40
2023-01-23T20:21:30.971Z,2.50
2023-01-23T20:23:58.741Z,2.50
2023-01-23T20:26:28.603Z,2.50
2023-01-23T20:28:55.639Z,2.40
2023-01-23T20:31:25.920Z,2.40
2023-01-23T20:34:08.770Z,2.30
2023-01-23T20:36:37.063Z,2.20
2023-01-23T20:39:05.428Z,2.40
2023-01-23T20:41:32.776Z,2.60
2023-01-23T20:43:59.736Z,2.40
2023-01-23T20:46:27.408Z,2.30
2023-01-23T20:48:54.607Z,2.20
2023-01-23T20:51:25.741Z,2.20
2023-01-23T20:53:53.413Z,2.20
2023-01-23T20:59:37.230Z,2.30
2023-01-23T21:02:22.973Z,2.30
2023-01-23T21:04:54.536Z,2.30
2023-01-23T21:10:19.829Z,2.30
2023-01-23T21:12:49.574Z,2.30
2023-01-23T21:15:20.736Z,2.30
2023-01-23T21:17:51.206Z,2.20
2023-01-23T21:20:21.530Z,2.20
2023-01-23T21:22:48.518Z,2.20
2023-01-23T21:25:15.938Z,2.20
2023-01-23T21:27:42.827Z,2.20
2023-01-23T21:30:10.856Z,2.20
2023-01-23T21:32:37.780Z,2.20
2023-01-23T21:35:06.382Z,2.30
2023-01-23T21:37:33.483Z,2.30
2023-01-23T21:40:00.715Z,2.30
2023-01-23T21:45:09.077Z,2.30
2023-01-23T21:47:36.014Z,2.30
2023-01-23T21:55:41.437Z,2.40
2023-01-23T22:06:05.363Z,2.50
2023-01-23T22:08:32.403Z,2.50
2023-01-23T22:10:59.445Z,2.50
2023-01-23T22:13:26.886Z,2.50
2023-01-23T22:15:54.268Z,2.70
2023-01-23T22:18:21.585Z,2.60
2023-01-23T22:20:54.998Z,2.50
2023-01-23T22:23:22.942Z,2.60
2023-01-23T22:25:58.353Z,3.20
2023-01-23T22:28:25.382Z,2.40
2023-01-23T22:30:52.867Z,2.40
2023-01-23T22:33:20.383Z,2.50
2023-01-23T22:35:48.457Z,2.40
2023-01-23T22:38:16.224Z,2.50
2023-01-23T22:40:43.454Z,2.60
2023-01-23T22:43:11.856Z,2.60
2023-01-23T22:45:38.735Z,2.60
2023-01-23T22:48:08.566Z,2.50
2023-01-23T22:50:36.731Z,2.60
2023-01-23T22:53:04.105Z,2.60
2023-01-23T22:55:30.951Z,2.60
2023-01-23T22:57:58.168Z,2.60
2023-01-23T23:00:25.031Z,2.70
2023-01-23T23:02:52.210Z,2.70
2023-01-23T23:05:20.905Z,2.70
2023-01-23T23:07:47.930Z,2.70
2023-01-23T23:10:14.804Z,2.70
2023-01-23T23:12:41.739Z,2.60
2023-01-23T23:15:10.896Z,2.60
2023-01-23T23:17:37.762Z,2.70
2023-01-23T23:20:05.562Z,2.60
2023-01-23T23:22:32.793Z,2.60
2023-01-23T23:24:59.837Z,2.60
2023-01-23T23:27:27.392Z,2.70
2023-01-23T23:29:54.301Z,2.70
2023-01-23T23:32:21.631Z,2.70
2023-01-23T23:34:50.055Z,2.70
2023-01-23T23:37:17.083Z,2.70
2023-01-23T23:39:44.044Z,2.60
2023-01-23T23:42:11.081Z,2.60
2023-01-23T23:44:38.561Z,2.70
2023-01-23T23:47:05.361Z,2.70
2023-01-23T23:49:32.729Z,2.50
2023-01-23T23:51:59.613Z,2.50
2023-01-23T23:54:26.872Z,2.50
2023-01-23T23:56:53.742Z,2.50
2023-01-23T23:59:21.038Z,2.60
